createdAt,value
2022-10-02T00:02:11.089Z,100.00
2022-10-02T00:04:44.311Z,100.00
2022-10-02T00:07:12.166Z,100.00
2022-10-02T00:09:48.916Z,100.00
2022-10-02T00:12:18.478Z,100.00
2022-10-02T00:14:47.569Z,100.00
2022-10-02T00:17:29.413Z,100.00
2022-10-02T00:19:56.593Z,100.00
2022-10-02T00:22:45.787Z,100.00
2022-10-02T00:25:27.542Z,100.00
2022-10-02T00:28:03.114Z,100.00
2022-10-02T00:30:36.490Z,100.00
2022-10-02T00:33:30.024Z,100.00
2022-10-02T00:36:24.442Z,100.00
2022-10-02T00:39:41.467Z,100.00
2022-10-02T00:42:16.676Z,100.00
2022-10-02T00:45:12.335Z,100.00
2022-10-02T00:47:54.252Z,100.00
2022-10-02T00:50:28.199Z,100.00
2022-10-02T00:53:21.321Z,100.00
2022-10-02T00:56:10.184Z,100.00
2022-10-02T00:58:55.242Z,100.00
2022-10-02T01:01:43.306Z,100.00
2022-10-02T01:04:15.534Z,100.00
2022-10-02T01:06:42.257Z,100.00
2022-10-02T01:09:08.662Z,100.00
2022-10-02T01:11:35.383Z,100.00
2022-10-02T01:14:02.279Z,100.00
2022-10-02T01:16:28.814Z,100.00
2022-10-02T01:18:55.368Z,100.00
2022-10-02T01:21:37.546Z,100.00
2022-10-02T01:24:18.700Z,100.00
2022-10-02T01:26:45.359Z,100.00
2022-10-02T01:29:11.834Z,100.00
2022-10-02T01:31:38.297Z,100.00
2022-10-02T01:34:05.160Z,100.00
2022-10-02T01:36:32.629Z,100.00
2022-10-02T01:39:00.448Z,100.00
2022-10-02T01:41:26.929Z,100.00
2022-10-02T01:43:58.280Z,100.00
2022-10-02T01:46:24.598Z,100.00
2022-10-02T01:49:13.059Z,100.00
2022-10-02T01:51:58.075Z,100.00
2022-10-02T01:54:51.062Z,100.00
2022-10-02T01:57:38.944Z,100.00
2022-10-02T02:00:17.377Z,100.00
2022-10-02T02:03:11.570Z,100.00
2022-10-02T02:05:59.228Z,100.00
2022-10-02T02:08:37.295Z,100.00
2022-10-02T02:11:16.364Z,100.00
2022-10-02T02:13:48.038Z,100.00
2022-10-02T02:16:17.319Z,100.00
2022-10-02T02:18:51.447Z,100.00
2022-10-02T02:21:38.838Z,100.00
2022-10-02T02:24:11.316Z,100.00
2022-10-02T02:26:39.174Z,100.00
2022-10-02T02:29:08.578Z,100.00
2022-10-02T02:31:47.905Z,100.00
2022-10-02T02:34:20.101Z,100.00
2022-10-02T02:36:51.383Z,100.00
2022-10-02T02:39:29.881Z,100.00
2022-10-02T02:42:02.958Z,100.00
2022-10-02T02:44:33.861Z,100.00
2022-10-02T02:47:11.189Z,100.00
2022-10-02T02:50:05.397Z,100.00
2022-10-02T02:52:41.450Z,100.00
2022-10-02T02:55:24.004Z,100.00
2022-10-02T02:58:08.974Z,100.00
2022-10-02T03:00:35.874Z,100.00
2022-10-02T03:03:02.361Z,100.00
2022-10-02T03:05:29.602Z,100.00
2022-10-02T03:08:01.529Z,100.00
2022-10-02T03:10:32.374Z,100.00
2022-10-02T03:13:36.572Z,100.00
2022-10-02T03:16:06.673Z,100.00
2022-10-02T03:18:52.843Z,100.00
2022-10-02T03:21:37.964Z,100.00
2022-10-02T03:24:43.924Z,100.00
2022-10-02T03:27:23.282Z,100.00
2022-10-02T03:29:56.861Z,100.00
2022-10-02T03:32:24.166Z,100.00
2022-10-02T03:34:50.674Z,100.00
2022-10-02T03:37:17.845Z,100.00
2022-10-02T03:39:45.464Z,100.00
2022-10-02T03:42:14.469Z,100.00
2022-10-02T03:44:41.063Z,100.00
2022-10-02T03:47:07.513Z,100.00
2022-10-02T03:49:34.718Z,100.00
2022-10-02T03:52:01.413Z,100.00
2022-10-02T03:54:33.841Z,100.00
2022-10-02T03:57:04.955Z,100.00
2022-10-02T03:59:34.108Z,100.00
2022-10-02T04:02:06.235Z,100.00
2022-10-02T04:04:42.460Z,100.00
2022-10-02T04:07:19.047Z,100.00
2022-10-02T04:10:09.782Z,100.00
2022-10-02T04:12:40.886Z,100.00
2022-10-02T04:15:21.359Z,100.00
2022-10-02T04:17:47.679Z,100.00
2022-10-02T04:20:31.583Z,100.00
2022-10-02T04:23:13.185Z,100.00
2022-10-02T04:25:45.102Z,100.00
2022-10-02T04:28:19.591Z,100.00
2022-10-02T04:30:45.994Z,100.00
2022-10-02T04:33:19.239Z,100.00
2022-10-02T04:36:14.796Z,100.00
2022-10-02T04:39:01.407Z,100.00
2022-10-02T04:41:46.222Z,100.00
2022-10-02T04:44:18.383Z,100.00
2022-10-02T04:46:57.000Z,100.00
2022-10-02T04:49:26.581Z,100.00
2022-10-02T04:52:20.905Z,100.00
2022-10-02T04:55:07.196Z,100.00
2022-10-02T04:58:02.726Z,100.00
2022-10-02T05:00:36.815Z,100.00
2022-10-02T05:03:25.331Z,100.00
2022-10-02T05:06:12.812Z,100.00
2022-10-02T05:08:42.438Z,100.00
2022-10-02T05:11:42.090Z,100.00
2022-10-02T05:14:20.600Z,100.00
2022-10-02T05:17:11.367Z,100.00
2022-10-02T05:20:02.241Z,100.00
2022-10-02T05:22:31.628Z,100.00
2022-10-02T05:25:26.015Z,100.00
2022-10-02T05:28:10.749Z,100.00
2022-10-02T05:31:12.020Z,100.00
2022-10-02T05:34:10.048Z,100.00
2022-10-02T05:36:59.677Z,100.00
2022-10-02T05:39:38.117Z,100.00
2022-10-02T05:42:28.166Z,100.00
2022-10-02T05:45:02.698Z,100.00
2022-10-02T05:47:31.924Z,100.00
2022-10-02T05:49:58.255Z,100.00
2022-10-02T05:52:42.529Z,100.00
2022-10-02T05:55:34.964Z,100.00
2022-10-02T05:58:13.022Z,100.00
2022-10-02T06:00:47.948Z,100.00
2022-10-02T06:03:35.818Z,100.00
2022-10-02T06:06:28.810Z,100.00
2022-10-02T06:09:19.545Z,100.00
2022-10-02T06:11:49.933Z,100.00
2022-10-02T06:14:27.555Z,100.00
2022-10-02T06:17:02.721Z,100.00
2022-10-02T06:19:42.421Z,100.00
2022-10-02T06:22:12.405Z,100.00
2022-10-02T06:25:25.483Z,100.00
2022-10-02T06:28:00.968Z,100.00
2022-10-02T06:30:32.663Z,100.00
2022-10-02T06:33:09.606Z,100.00
2022-10-02T06:36:04.588Z,100.00
2022-10-02T06:39:00.559Z,100.00
2022-10-02T06:41:51.546Z,100.00
2022-10-02T06:44:47.922Z,100.00
2022-10-02T06:47:34.901Z,100.00
2022-10-02T06:50:16.419Z,100.00
2022-10-02T06:53:05.610Z,100.00
2022-10-02T06:55:48.812Z,100.00
2022-10-02T06:58:33.307Z,100.00
2022-10-02T07:01:09.908Z,100.00
2022-10-02T07:03:47.514Z,100.00
2022-10-02T07:06:33.262Z,100.00
2022-10-02T07:09:33.077Z,100.00
2022-10-02T07:12:14.805Z,100.00
2022-10-02T07:15:15.247Z,100.00
2022-10-02T07:17:47.350Z,100.00
2022-10-02T07:20:25.821Z,100.00
2022-10-02T07:23:25.097Z,100.00
2022-10-02T07:26:23.399Z,100.00
2022-10-02T07:29:30.550Z,100.00
2022-10-02T07:32:15.651Z,100.00
2022-10-02T07:34:51.958Z,100.00
2022-10-02T07:37:24.518Z,100.00
2022-10-02T07:40:03.366Z,100.00
2022-10-02T07:42:32.812Z,100.00
2022-10-02T07:45:26.798Z,100.00
2022-10-02T07:47:58.929Z,100.00
2022-10-02T07:50:38.128Z,100.00
2022-10-02T07:53:38.959Z,100.00
2022-10-02T07:56:07.947Z,100.00
2022-10-02T07:58:40.525Z,100.00
2022-10-02T08:01:16.867Z,100.00
2022-10-02T08:03:56.866Z,100.00
2022-10-02T08:06:23.347Z,100.00
2022-10-02T08:08:55.321Z,100.00
2022-10-02T08:11:31.424Z,100.00
2022-10-02T08:14:08.203Z,100.00
2022-10-02T08:16:48.125Z,100.00
2022-10-02T08:19:25.372Z,100.00
2022-10-02T08:22:05.235Z,100.00
2022-10-02T08:24:40.428Z,100.00
2022-10-02T08:27:15.860Z,100.00
2022-10-02T08:29:48.287Z,100.00
2022-10-02T08:32:15.183Z,100.00
2022-10-02T08:34:44.070Z,100.00
2022-10-02T08:37:47.617Z,100.00
2022-10-02T08:40:51.541Z,100.00
2022-10-02T08:43:33.287Z,100.00
2022-10-02T08:46:27.607Z,100.00
2022-10-02T08:49:31.949Z,100.00
2022-10-02T08:52:25.826Z,100.00
2022-10-02T08:55:21.654Z,100.00
2022-10-02T08:58:04.287Z,100.00
2022-10-02T09:00:36.620Z,100.00
2022-10-02T09:03:28.321Z,100.00
2022-10-02T09:06:19.467Z,100.00
2022-10-02T09:09:07.727Z,100.00
2022-10-02T09:12:10.249Z,100.00
2022-10-02T09:14:37.316Z,100.00
2022-10-02T09:17:03.728Z,100.00
2022-10-02T09:19:48.812Z,100.00
2022-10-02T09:22:36.166Z,100.00
2022-10-02T09:25:28.289Z,100.00
2022-10-02T09:28:22.455Z,100.00
2022-10-02T09:30:48.912Z,100.00
2022-10-02T09:33:21.179Z,100.00
2022-10-02T09:36:02.018Z,100.00
2022-10-02T09:38:53.309Z,100.00
2022-10-02T09:41:49.508Z,100.00
2022-10-02T09:44:37.631Z,100.00
2022-10-02T09:47:36.955Z,100.00
2022-10-02T09:50:49.841Z,100.00
2022-10-02T09:53:41.227Z,100.00
2022-10-02T09:56:53.295Z,100.00
2022-10-02T09:59:48.683Z,100.00
2022-10-02T10:02:57.201Z,100.00
2022-10-02T10:06:00.887Z,100.00
2022-10-02T10:08:55.219Z,100.00
2022-10-02T10:11:38.193Z,100.00
2022-10-02T10:14:36.952Z,100.00
2022-10-02T10:17:08.987Z,100.00
2022-10-02T10:19:35.338Z,100.00
2022-10-02T10:22:21.682Z,100.00
2022-10-02T10:25:10.631Z,100.00
2022-10-02T10:28:28.841Z,100.00
2022-10-02T10:31:13.754Z,100.00
2022-10-02T10:33:55.345Z,100.00
2022-10-02T10:36:58.570Z,100.00
2022-10-02T10:39:49.535Z,100.00
2022-10-02T10:43:06.456Z,100.00
2022-10-02T10:46:06.280Z,100.00
2022-10-02T10:48:49.403Z,100.00
2022-10-02T10:51:19.188Z,100.00
2022-10-02T10:54:02.066Z,100.00
2022-10-02T10:56:44.503Z,100.00
2022-10-02T10:59:27.173Z,100.00
2022-10-02T11:01:56.583Z,100.00
2022-10-02T11:04:40.961Z,100.00
2022-10-02T11:07:34.671Z,100.00
2022-10-02T11:10:22.417Z,100.00
2022-10-02T11:13:01.172Z,99.51
2022-10-02T11:15:39.472Z,100.00
2022-10-02T11:18:22.020Z,100.00
2022-10-02T11:21:13.706Z,100.00
2022-10-02T11:24:05.740Z,99.87
2022-10-02T11:26:55.258Z,97.76
2022-10-02T11:29:51.087Z,100.00
2022-10-02T11:32:43.419Z,100.00
2022-10-02T11:35:19.661Z,100.00
2022-10-02T11:38:04.658Z,100.00
2022-10-02T11:40:54.359Z,91.74
2022-10-02T11:43:38.410Z,85.16
2022-10-02T11:46:33.538Z,88.24
2022-10-02T11:49:07.593Z,87.22
2022-10-02T11:51:46.876Z,90.96
2022-10-02T11:54:25.064Z,91.85
2022-10-02T11:57:16.556Z,88.08
2022-10-02T12:00:14.012Z,86.36
2022-10-02T12:02:53.043Z,91.34
2022-10-02T12:05:43.047Z,91.47
2022-10-02T12:08:24.130Z,92.04
2022-10-02T12:11:16.700Z,91.47
2022-10-02T12:14:01.645Z,90.08
2022-10-02T12:17:07.775Z,88.51
2022-10-02T12:20:14.943Z,91.17
2022-10-02T12:23:14.057Z,91.94
2022-10-02T12:26:08.048Z,90.28
2022-10-02T12:28:43.196Z,90.55
2022-10-02T12:31:12.471Z,89.38
2022-10-02T12:33:56.584Z,91.72
2022-10-02T12:36:38.278Z,86.63
2022-10-02T12:39:22.171Z,84.94
2022-10-02T12:42:21.347Z,84.63
2022-10-02T12:45:18.454Z,83.90
2022-10-02T12:48:07.095Z,83.27
2022-10-02T12:50:45.489Z,83.32
2022-10-02T12:53:15.115Z,85.04
2022-10-02T12:56:04.679Z,83.57
2022-10-02T12:58:53.899Z,84.53
2022-10-02T13:01:44.673Z,80.54
2022-10-02T13:04:34.744Z,80.54
2022-10-02T13:07:13.433Z,80.73
2022-10-02T13:09:52.205Z,83.72
2022-10-02T13:12:27.629Z,82.75
2022-10-02T13:15:25.387Z,81.86
2022-10-02T13:18:25.393Z,83.42
2022-10-02T13:21:07.275Z,82.81
2022-10-02T13:23:58.250Z,78.12
2022-10-02T13:26:37.070Z,76.05
2022-10-02T13:29:15.623Z,70.91
2022-10-02T13:32:01.917Z,72.91
2022-10-02T13:34:28.915Z,70.17
2022-10-02T13:37:04.726Z,66.33
2022-10-02T13:39:46.875Z,60.85
2022-10-02T13:42:14.490Z,61.20
2022-10-02T13:44:52.631Z,60.33
2022-10-02T13:47:31.659Z,56.50
2022-10-02T13:49:58.102Z,60.10
2022-10-02T13:52:47.553Z,54.42
2022-10-02T13:55:31.476Z,52.26
2022-10-02T13:58:06.735Z,51.71
2022-10-02T14:00:38.943Z,45.51
2022-10-02T14:03:43.190Z,46.29
2022-10-02T14:06:17.130Z,48.65
2022-10-02T14:08:52.568Z,48.59
2022-10-02T14:11:46.199Z,47.63
2022-10-02T14:14:35.820Z,48.66
2022-10-02T14:17:19.233Z,47.45
2022-10-02T14:19:52.728Z,49.16
2022-10-02T14:22:27.863Z,48.83
2022-10-02T14:25:10.399Z,50.30
2022-10-02T14:27:58.822Z,49.43
2022-10-02T14:30:46.832Z,49.46
2022-10-02T14:33:22.855Z,49.84
2022-10-02T14:35:49.198Z,51.79
2022-10-02T14:38:30.920Z,55.49
2022-10-02T14:41:02.102Z,59.34
2022-10-02T14:43:47.194Z,63.26
2022-10-02T14:46:21.779Z,66.31
2022-10-02T14:49:10.876Z,66.60
2022-10-02T14:52:14.358Z,69.43
2022-10-02T14:55:08.715Z,71.92
2022-10-02T14:58:06.179Z,72.27
2022-10-02T15:01:00.865Z,73.48
2022-10-02T15:03:30.365Z,72.75
2022-10-02T15:06:25.733Z,72.51
2022-10-02T15:09:00.890Z,73.15
2022-10-02T15:11:36.809Z,73.98
2022-10-02T15:14:08.288Z,73.48
2022-10-02T15:17:06.566Z,74.41
2022-10-02T15:19:54.723Z,73.72
2022-10-02T16:18:56.518Z,87.31
2022-10-02T16:21:37.393Z,86.48
2022-10-02T16:24:15.777Z,88.10
2022-10-02T16:27:08.349Z,89.65
2022-10-02T16:30:01.424Z,86.35
2022-10-02T16:33:06.422Z,87.72
2022-10-02T16:35:51.334Z,87.15
2022-10-02T16:38:37.878Z,88.27
2022-10-02T16:41:31.079Z,88.92
2022-10-02T16:44:22.429Z,90.83
2022-10-02T16:47:15.061Z,90.91
2022-10-02T16:49:53.983Z,91.73
2022-10-02T16:52:43.356Z,93.37
2022-10-02T16:55:27.750Z,92.41
2022-10-02T16:57:58.346Z,92.74
2022-10-02T17:00:31.246Z,93.13
2022-10-02T17:02:57.660Z,93.38
2022-10-02T17:05:46.204Z,94.02
2022-10-02T17:08:21.713Z,95.11
2022-10-02T17:11:13.473Z,95.77
2022-10-02T17:13:55.020Z,98.55
2022-10-02T17:16:55.418Z,98.47
2022-10-02T17:19:45.764Z,100.00
2022-10-02T17:22:35.598Z,100.00
2022-10-02T17:25:11.489Z,100.00
2022-10-02T17:27:53.316Z,100.00
2022-10-02T17:30:24.292Z,100.00
2022-10-02T17:33:02.282Z,100.00
2022-10-02T17:35:58.200Z,100.00
2022-10-02T17:38:31.156Z,100.00
2022-10-02T17:41:18.445Z,100.00
2022-10-02T17:44:11.052Z,100.00
2022-10-02T17:46:54.792Z,100.00
2022-10-02T17:49:48.738Z,100.00
2022-10-02T17:53:08.636Z,100.00
2022-10-02T17:56:18.618Z,100.00
2022-10-02T17:58:52.088Z,100.00
2022-10-02T18:01:29.339Z,100.00
2022-10-02T18:04:15.388Z,100.00
2022-10-02T18:06:56.951Z,100.00
2022-10-02T18:09:26.281Z,100.00
2022-10-02T18:12:28.351Z,100.00
2022-10-02T18:15:32.647Z,100.00
2022-10-02T18:17:59.017Z,100.00
2022-10-02T18:20:36.307Z,100.00
2022-10-02T18:23:39.547Z,100.00
2022-10-02T18:26:27.583Z,100.00
2022-10-02T18:29:15.032Z,100.00
2022-10-02T18:32:03.373Z,100.00
2022-10-02T18:34:33.424Z,100.00
2022-10-02T18:37:33.879Z,100.00
2022-10-02T18:40:36.920Z,100.00
2022-10-02T18:43:30.981Z,100.00
2022-10-02T18:46:03.054Z,100.00
2022-10-02T18:49:00.778Z,100.00
2022-10-02T18:51:31.328Z,100.00
2022-10-02T18:54:22.369Z,100.00
2022-10-02T18:57:07.472Z,100.00
2022-10-02T18:59:46.027Z,100.00
2022-10-02T19:02:26.342Z,100.00
2022-10-02T19:05:19.650Z,100.00
2022-10-02T19:07:58.242Z,100.00
2022-10-02T19:10:40.308Z,100.00
2022-10-02T19:13:18.201Z,100.00
2022-10-02T19:15:46.689Z,100.00
2022-10-02T19:18:22.675Z,100.00
2022-10-02T19:21:09.108Z,100.00
2022-10-02T19:24:05.800Z,100.00
2022-10-02T19:26:35.463Z,100.00
2022-10-02T19:29:08.089Z,100.00
2022-10-02T19:31:39.306Z,100.00
2022-10-02T19:34:13.886Z,100.00
2022-10-02T19:36:50.159Z,100.00
2022-10-02T19:39:41.313Z,100.00
2022-10-02T19:42:15.345Z,100.00
2022-10-02T19:44:48.698Z,100.00
2022-10-02T19:47:27.156Z,100.00
2022-10-02T19:49:56.881Z,100.00
2022-10-02T19:52:35.933Z,100.00
2022-10-02T19:55:17.184Z,100.00
2022-10-02T19:57:47.859Z,100.00
2022-10-02T20:00:16.644Z,100.00
2022-10-02T20:02:50.623Z,100.00
2022-10-02T20:05:22.018Z,100.00
2022-10-02T20:07:51.823Z,100.00
2022-10-02T20:10:25.150Z,100.00
2022-10-02T20:13:02.388Z,100.00
2022-10-02T20:15:58.516Z,100.00
2022-10-02T20:18:24.915Z,100.00
2022-10-02T20:20:55.883Z,100.00
2022-10-02T20:23:28.270Z,100.00
2022-10-02T20:25:58.523Z,100.00
2022-10-02T20:28:33.909Z,100.00
2022-10-02T20:31:14.791Z,100.00
2022-10-02T20:33:55.355Z,100.00
2022-10-02T20:36:38.412Z,100.00
2022-10-02T20:39:14.674Z,100.00
2022-10-02T20:41:56.863Z,100.00
2022-10-02T20:44:25.922Z,100.00
2022-10-02T20:47:34.120Z,100.00
2022-10-02T20:50:19.365Z,100.00
2022-10-02T20:53:21.670Z,100.00
2022-10-02T20:55:59.680Z,100.00
2022-10-02T20:59:08.556Z,100.00
2022-10-02T21:01:37.913Z,100.00
2022-10-02T21:04:16.539Z,100.00
2022-10-02T21:07:10.809Z,100.00
2022-10-02T21:09:40.236Z,100.00
2022-10-02T21:12:18.829Z,100.00
2022-10-02T21:15:12.960Z,100.00
2022-10-02T21:18:07.764Z,100.00
2022-10-02T21:20:56.046Z,100.00
2022-10-02T21:23:51.663Z,100.00
2022-10-02T21:26:45.107Z,100.00
2022-10-02T21:29:36.527Z,100.00
2022-10-02T21:32:16.986Z,100.00
2022-10-02T21:35:08.725Z,100.00
2022-10-02T21:38:06.864Z,100.00
2022-10-02T21:41:22.056Z,100.00
2022-10-02T21:44:16.339Z,100.00
2022-10-02T21:46:58.002Z,100.00
2022-10-02T21:49:55.456Z,100.00
2022-10-02T21:53:17.458Z,100.00
2022-10-02T21:55:59.852Z,100.00
2022-10-02T21:59:04.663Z,100.00
2022-10-02T22:01:42.700Z,100.00
2022-10-02T22:04:36.118Z,100.00
2022-10-02T22:07:21.987Z,100.00
2022-10-02T22:10:14.580Z,100.00
2022-10-02T22:12:46.619Z,100.00
2022-10-02T22:15:31.865Z,100.00
2022-10-02T22:18:22.752Z,100.00
2022-10-02T22:21:06.651Z,100.00
2022-10-02T22:24:22.891Z,100.00
2022-10-02T22:27:10.164Z,100.00
2022-10-02T22:29:47.384Z,100.00
2022-10-02T22:32:49.553Z,100.00
2022-10-02T22:35:42.217Z,100.00
2022-10-02T22:38:20.597Z,100.00
2022-10-02T22:40:55.039Z,100.00
2022-10-02T22:43:40.227Z,100.00
2022-10-02T22:46:25.633Z,100.00
2022-10-02T22:49:00.968Z,100.00
2022-10-02T22:51:40.235Z,100.00
2022-10-02T22:54:31.765Z,100.00
2022-10-02T22:57:12.687Z,100.00
2022-10-02T23:00:02.657Z,100.00
2022-10-02T23:02:32.508Z,100.00
2022-10-02T23:05:16.888Z,100.00
2022-10-02T23:07:57.362Z,100.00
2022-10-02T23:10:42.848Z,100.00
2022-10-02T23:13:09.193Z,100.00
2022-10-02T23:15:56.622Z,100.00
2022-10-02T23:18:27.005Z,100.00
2022-10-02T23:21:24.780Z,100.00
2022-10-02T23:23:59.680Z,100.00
2022-10-02T23:26:41.262Z,100.00
2022-10-02T23:29:26.051Z,100.00
2022-10-02T23:32:31.535Z,100.00
2022-10-02T23:35:25.396Z,100.00
2022-10-02T23:37:55.679Z,100.00
2022-10-02T23:40:44.937Z,100.00
2022-10-02T23:43:19.551Z,100.00
2022-10-02T23:45:54.121Z,100.00
2022-10-02T23:48:20.966Z,100.00
2022-10-02T23:51:00.121Z,100.00
2022-10-02T23:53:27.352Z,100.00
2022-10-02T23:55:56.735Z,100.00
2022-10-02T23:58:48.117Z,100.00
